Time;durP1;ratioP1;P1;durP2;ratioP2;P2;SDS_P1;SDS_P2;PMS_P1;PMS_P2;Temp;Humidity;BMP_temperature;BMP_pressure;BME280_temperature;BME280_humidity;BME280_pressure;Samples;Min_cycle;Max_cycle;Signal;HPM_P1;HPM_P2
2021/07/20 00:01:18;;;;;;;6.95;4.03;;;;;;;;;;5013230;28;20076;-68
2021/07/20 00:03:45;;;;;;;6.97;4.15;;;;;;;;;;5013108;28;20018;-66
2021/07/20 00:06:12;;;;;;;6.03;3.85;;;;;;;;;;5012937;28;20024;-67
2021/07/20 00:08:38;;;;;;;5.00;4.30;;;;;;;;;;5012995;28;20037;-68
2021/07/20 00:11:05;;;;;;;5.50;3.80;;;;;;;;;;5013170;28;20026;-68
2021/07/20 00:13:31;;;;;;;4.72;3.47;;;;;;;;;;5012100;28;20365;-68
2021/07/20 00:15:58;;;;;;;5.22;4.07;;;;;;;;;;5012814;28;20444;-67
2021/07/20 00:18:34;;;;;;;5.40;3.80;;;;;;;;;;5012764;28;20097;-68
2021/07/20 00:21:02;;;;;;;6.88;3.95;;;;;;;;;;5013039;28;20388;-67
2021/07/20 00:23:28;;;;;;;6.68;3.75;;;;;;;;;;5017551;28;20385;-68
2021/07/20 00:25:54;;;;;;;6.45;3.88;;;;;;;;;;5032383;28;20025;-66
2021/07/20 00:28:23;;;;;;;6.60;4.25;;;;;;;;;;5032350;28;20033;-67
2021/07/20 00:30:49;;;;;;;4.50;3.50;;;;;;;;;;5032291;28;20030;-68
2021/07/20 00:33:15;;;;;;;5.00;4.13;;;;;;;;;;5032310;28;20029;-67
2021/07/20 00:35:43;;;;;;;5.60;3.70;;;;;;;;;;5031958;28;20124;-67
2021/07/20 00:38:11;;;;;;;6.20;3.90;;;;;;;;;;5032163;28;20095;-67
2021/07/20 00:40:37;;;;;;;6.35;4.50;;;;;;;;;;5032199;28;20021;-68
2021/07/20 00:43:04;;;;;;;6.97;4.20;;;;;;;;;;5032097;28;20045;-67
2021/07/20 00:45:30;;;;;;;4.88;3.83;;;;;;;;;;5032245;28;20033;-67
2021/07/20 00:47:57;;;;;;;5.88;4.65;;;;;;;;;;5027048;28;20076;-67
2021/07/20 00:50:24;;;;;;;6.15;3.92;;;;;;;;;;5012368;28;20495;-67
2021/07/20 00:52:50;;;;;;;5.97;4.15;;;;;;;;;;5012334;28;20034;-68
2021/07/20 00:55:17;;;;;;;6.28;4.70;;;;;;;;;;5021678;28;20029;-68
2021/07/20 00:57:43;;;;;;;4.25;3.85;;;;;;;;;;5031993;28;20026;-67
2021/07/20 01:00:11;;;;;;;5.25;4.00;;;;;;;;;;5031941;28;20159;-68
2021/07/20 01:02:37;;;;;;;5.93;4.72;;;;;;;;;;5032598;28;20024;-67
2021/07/20 01:05:08;;;;;;;5.32;4.13;;;;;;;;;;5014373;28;20048;-66
2021/07/20 01:07:35;;;;;;;7.50;4.15;;;;;;;;;;5032014;28;20025;-67
2021/07/20 01:10:01;;;;;;;8.88;4.47;;;;;;;;;;5031851;28;20029;-66
2021/07/20 01:12:30;;;;;;;6.88;5.25;;;;;;;;;;5031936;28;20025;-66
2021/07/20 01:14:57;;;;;;;6.88;4.95;;;;;;;;;;5032181;28;20068;-67
2021/07/20 01:17:23;;;;;;;8.32;4.85;;;;;;;;;;5031776;28;20026;-66
2021/07/20 01:19:53;;;;;;;8.05;4.90;;;;;;;;;;5032056;28;20096;-66
2021/07/20 01:22:30;;;;;;;6.28;4.78;;;;;;;;;;5031922;28;20029;-66
2021/07/20 01:25:00;;;;;;;9.00;5.40;;;;;;;;;;5034691;28;20056;-67
2021/07/20 01:27:26;;;;;;;8.45;5.30;;;;;;;;;;5035595;28;20492;-66
2021/07/20 01:29:52;;;;;;;8.85;5.43;;;;;;;;;;5035710;28;20026;-67
2021/07/20 01:32:20;;;;;;;8.13;5.63;;;;;;;;;;5035405;28;20127;-66
2021/07/20 01:34:46;;;;;;;7.38;5.90;;;;;;;;;;5035639;28;20048;-67
2021/07/20 01:37:13;;;;;;;10.70;5.07;;;;;;;;;;5018366;28;20060;-66
2021/07/20 01:39:41;;;;;;;9.30;5.93;;;;;;;;;;5015791;28;20026;-65
2021/07/20 01:42:08;;;;;;;7.47;4.80;;;;;;;;;;5015403;28;20042;-65
2021/07/20 01:44:34;;;;;;;9.25;5.72;;;;;;;;;;5015399;28;20431;-67
2021/07/20 01:47:00;;;;;;;8.63;5.38;;;;;;;;;;5015622;28;20026;-65
2021/07/20 01:49:27;;;;;;;9.50;5.60;;;;;;;;;;5015330;28;20388;-68
2021/07/20 01:51:54;;;;;;;8.68;6.10;;;;;;;;;;5015249;28;20036;-67
2021/07/20 01:54:21;;;;;;;7.55;5.50;;;;;;;;;;5015188;28;20028;-67
2021/07/20 01:56:48;;;;;;;8.48;5.35;;;;;;;;;;5015115;28;20037;-67
2021/07/20 01:59:14;;;;;;;8.85;6.07;;;;;;;;;;5015054;28;20033;-68
2021/07/20 02:02:00;;;;;;;10.95;7.00;;;;;;;;;;5015251;28;20057;-68
2021/07/20 02:09:48;;;;;;;9.32;5.43;;;;;;;;;;5015266;28;20045;-68
2021/07/20 02:12:17;;;;;;;7.97;5.50;;;;;;;;;;5015163;28;20030;-67
2021/07/20 02:14:44;;;;;;;10.85;6.30;;;;;;;;;;5014631;28;20401;-68
2021/07/20 02:17:11;;;;;;;11.55;5.57;;;;;;;;;;5015242;28;20022;-67
2021/07/20 02:19:48;;;;;;;7.28;5.38;;;;;;;;;;5014731;28;20028;-68
2021/07/20 02:22:22;;;;;;;8.18;5.40;;;;;;;;;;5014666;28;20025;-68
2021/07/20 02:24:50;;;;;;;6.55;5.70;;;;;;;;;;5030428;28;20032;-67
2021/07/20 02:27:18;;;;;;;7.95;5.40;;;;;;;;;;5034328;28;20024;-68
2021/07/20 02:29:44;;;;;;;9.68;5.30;;;;;;;;;;5034312;28;20029;-68
2021/07/20 02:32:11;;;;;;;9.63;6.28;;;;;;;;;;5034635;28;20380;-67
2021/07/20 02:34:39;;;;;;;7.38;5.10;;;;;;;;;;5033832;28;20021;-67
2021/07/20 02:37:06;;;;;;;8.75;6.00;;;;;;;;;;5017903;28;20038;-67
2021/07/20 02:39:33;;;;;;;7.40;5.70;;;;;;;;;;5014616;28;20022;-66
2021/07/20 02:42:00;;;;;;;9.07;5.60;;;;;;;;;;5015717;28;20053;-66
2021/07/20 02:44:26;;;;;;;9.10;5.13;;;;;;;;;;5033959;28;20541;-68
2021/07/20 02:46:53;;;;;;;7.50;5.50;;;;;;;;;;5034025;28;20395;-66
2021/07/20 02:49:19;;;;;;;11.65;6.10;;;;;;;;;;5033908;28;20040;-67
2021/07/20 02:51:46;;;;;;;7.93;5.43;;;;;;;;;;5033965;28;20580;-66
2021/07/20 02:54:12;;;;;;;8.13;5.15;;;;;;;;;;5033827;28;20496;-68
2021/07/20 02:56:39;;;;;;;9.23;5.45;;;;;;;;;;5016079;28;20038;-67
2021/07/20 02:59:07;;;;;;;8.73;5.72;;;;;;;;;;5033628;28;20021;-67
2021/07/20 03:01:33;;;;;;;9.77;5.47;;;;;;;;;;5033731;28;20559;-65
2021/07/20 03:04:00;;;;;;;7.68;5.38;;;;;;;;;;5033475;28;20022;-67
2021/07/20 03:06:27;;;;;;;7.75;5.15;;;;;;;;;;5033686;28;20075;-67
2021/07/20 03:08:58;;;;;;;7.47;4.60;;;;;;;;;;5033525;28;20061;-67
2021/07/20 03:11:27;;;;;;;6.88;5.85;;;;;;;;;;5033573;28;20033;-67
2021/07/20 03:13:55;;;;;;;8.10;5.50;;;;;;;;;;5033392;28;20026;-67
2021/07/20 03:16:22;;;;;;;7.78;4.97;;;;;;;;;;5033016;28;20056;-66
2021/07/20 03:18:50;;;;;;;6.55;4.97;;;;;;;;;;5033077;28;20025;-67
2021/07/20 03:21:17;;;;;;;7.47;5.32;;;;;;;;;;5032984;28;20025;-66
2021/07/20 03:23:43;;;;;;;9.85;5.38;;;;;;;;;;5032500;28;20052;-67
2021/07/20 03:26:10;;;;;;;6.55;5.30;;;;;;;;;;5033143;28;20079;-66
2021/07/20 03:28:37;;;;;;;6.90;4.78;;;;;;;;;;5032640;28;20077;-67
2021/07/20 03:31:04;;;;;;;5.88;5.10;;;;;;;;;;5032915;28;20063;-66
2021/07/20 03:33:31;;;;;;;9.40;5.57;;;;;;;;;;5032502;28;20052;-66
2021/07/20 03:35:57;;;;;;;7.90;4.65;;;;;;;;;;5026447;28;20022;-66
2021/07/20 03:38:24;;;;;;;6.85;4.85;;;;;;;;;;5030636;28;20021;-66
2021/07/20 03:40:51;;;;;;;8.57;5.80;;;;;;;;;;5032579;28;20516;-66
2021/07/20 03:43:18;;;;;;;7.43;5.85;;;;;;;;;;5009941;28;20431;-67
2021/07/20 03:45:45;;;;;;;6.65;4.82;;;;;;;;;;5031661;28;20034;-67
2021/07/20 03:48:13;;;;;;;7.45;5.10;;;;;;;;;;5032413;28;20022;-66
2021/07/20 03:50:41;;;;;;;7.80;5.43;;;;;;;;;;5032488;28;20034;-67
2021/07/20 03:53:07;;;;;;;6.15;4.97;;;;;;;;;;5032864;28;20029;-66
2021/07/20 03:55:35;;;;;;;8.18;5.25;;;;;;;;;;5043078;28;20032;-66
2021/07/20 03:58:01;;;;;;;8.38;5.00;;;;;;;;;;5032924;28;20017;-66
2021/07/20 04:00:27;;;;;;;7.85;5.30;;;;;;;;;;5031678;28;20492;-66
2021/07/20 04:03:21;;;;;;;7.85;5.10;;;;;;;;;;5032574;28;20079;-67
2021/07/20 04:05:44;;;;;;;8.15;4.80;;;;;;;;;;5032102;28;20076;-67
2021/07/20 04:08:12;;;;;;;11.48;5.53;;;;;;;;;;5031653;28;20029;-67
2021/07/20 04:10:39;;;;;;;6.82;4.70;;;;;;;;;;5031769;28;20106;-67
2021/07/20 04:13:05;;;;;;;7.43;4.88;;;;;;;;;;5032962;28;20486;-66
2021/07/20 04:15:32;;;;;;;9.18;5.25;;;;;;;;;;5032383;28;20030;-65
2021/07/20 04:17:58;;;;;;;9.95;5.32;;;;;;;;;;5032494;28;20029;-67
2021/07/20 04:20:25;;;;;;;8.05;4.60;;;;;;;;;;5031343;28;20097;-66
2021/07/20 04:22:51;;;;;;;6.28;4.97;;;;;;;;;;5032137;28;20030;-66
2021/07/20 04:25:17;;;;;;;9.95;5.90;;;;;;;;;;5031727;28;20029;-66
2021/07/20 04:27:43;;;;;;;6.05;4.90;;;;;;;;;;5031381;28;20029;-66
2021/07/20 04:30:10;;;;;;;7.93;4.82;;;;;;;;;;5031927;28;20392;-66
2021/07/20 04:32:45;;;;;;;8.93;4.97;;;;;;;;;;5031902;28;20033;-68
2021/07/20 04:35:12;;;;;;;7.20;5.10;;;;;;;;;;5032106;28;20060;-65
2021/07/20 04:37:39;;;;;;;7.82;5.55;;;;;;;;;;5024375;28;20457;-67
2021/07/20 04:40:06;;;;;;;8.38;5.35;;;;;;;;;;5031684;28;20472;-66
2021/07/20 04:42:32;;;;;;;6.82;4.95;;;;;;;;;;5032366;28;20069;-67
2021/07/20 04:44:58;;;;;;;7.22;4.95;;;;;;;;;;5032318;28;20385;-67
2021/07/20 04:47:24;;;;;;;9.55;5.10;;;;;;;;;;5031619;28;20095;-67
2021/07/20 04:49:51;;;;;;;7.20;5.00;;;;;;;;;;5031086;28;20056;-67
2021/07/20 04:52:17;;;;;;;8.80;5.30;;;;;;;;;;5031952;28;20029;-65
2021/07/20 04:54:44;;;;;;;7.35;4.90;;;;;;;;;;5030850;28;20102;-65
2021/07/20 04:57:10;;;;;;;7.60;5.25;;;;;;;;;;5030665;28;20038;-66
2021/07/20 04:59:38;;;;;;;8.45;5.00;;;;;;;;;;5034220;28;20416;-67
2021/07/20 05:02:04;;;;;;;9.40;5.70;;;;;;;;;;5035081;28;20155;-66
2021/07/20 05:04:31;;;;;;;7.97;5.55;;;;;;;;;;5035474;28;20029;-67
2021/07/20 05:06:57;;;;;;;7.03;5.20;;;;;;;;;;5034066;28;20040;-66
2021/07/20 05:09:24;;;;;;;7.95;4.80;;;;;;;;;;5035339;28;20033;-66
2021/07/20 05:11:51;;;;;;;7.60;5.18;;;;;;;;;;5035119;28;20022;-67
2021/07/20 05:14:18;;;;;;;11.07;5.10;;;;;;;;;;5036234;28;20435;-66
2021/07/20 05:16:45;;;;;;;7.68;4.78;;;;;;;;;;5035113;28;20037;-66
2021/07/20 05:19:11;;;;;;;8.35;4.78;;;;;;;;;;5035259;28;20018;-66
2021/07/20 05:21:38;;;;;;;10.43;4.93;;;;;;;;;;5034686;28;20021;-68
2021/07/20 05:24:06;;;;;;;7.22;4.53;;;;;;;;;;5035153;28;20018;-67
2021/07/20 05:26:32;;;;;;;8.63;4.93;;;;;;;;;;5035274;28;20030;-66
2021/07/20 05:28:59;;;;;;;8.95;5.82;;;;;;;;;;5034728;28;20029;-66
2021/07/20 05:31:26;;;;;;;7.97;5.30;;;;;;;;;;5035111;28;20063;-66
2021/07/20 05:33:52;;;;;;;5.72;4.65;;;;;;;;;;5035043;28;20416;-66
2021/07/20 05:36:18;;;;;;;9.00;4.85;;;;;;;;;;5025765;28;20104;-67
2021/07/20 05:38:44;;;;;;;8.60;5.55;;;;;;;;;;5035158;28;20018;-67
2021/07/20 05:41:11;;;;;;;8.13;4.90;;;;;;;;;;5034160;28;20037;-67
2021/07/20 05:43:37;;;;;;;8.48;4.85;;;;;;;;;;5035378;28;20026;-66
2021/07/20 05:46:03;;;;;;;6.88;4.95;;;;;;;;;;5033966;28;20484;-67
2021/07/20 05:48:30;;;;;;;9.15;5.20;;;;;;;;;;5034851;28;20037;-66
2021/07/20 05:51:00;;;;;;;9.32;5.20;;;;;;;;;;5035022;28;20036;-66
2021/07/20 05:53:28;;;;;;;6.95;4.97;;;;;;;;;;5035472;28;20028;-67
2021/07/20 05:55:56;;;;;;;8.52;5.07;;;;;;;;;;5033394;28;20031;-66
2021/07/20 05:58:23;;;;;;;7.95;5.13;;;;;;;;;;5033023;28;20032;-67
2021/07/20 06:00:51;;;;;;;6.93;4.82;;;;;;;;;;5033457;28;20072;-67
2021/07/20 06:03:19;;;;;;;10.88;5.20;;;;;;;;;;5033708;28;20125;-67
2021/07/20 06:05:46;;;;;;;6.45;4.70;;;;;;;;;;5033592;28;20025;-66
2021/07/20 06:08:19;;;;;;;7.47;5.00;;;;;;;;;;5033901;28;20025;-66
2021/07/20 06:10:47;;;;;;;8.32;5.07;;;;;;;;;;5032816;28;20112;-66
2021/07/20 06:13:13;;;;;;;10.07;5.35;;;;;;;;;;5034617;28;20033;-67
2021/07/20 06:15:44;;;;;;;11.38;5.60;;;;;;;;;;5033732;28;20048;-67
2021/07/20 06:18:10;;;;;;;7.55;5.32;;;;;;;;;;5022864;28;20041;-68
2021/07/20 06:20:37;;;;;;;7.45;4.50;;;;;;;;;;5031898;28;20033;-69
2021/07/20 06:23:04;;;;;;;6.18;4.75;;;;;;;;;;5031457;28;20033;-68
2021/07/20 06:25:30;;;;;;;6.40;4.45;;;;;;;;;;5033511;28;20078;-67
2021/07/20 06:27:57;;;;;;;9.02;4.82;;;;;;;;;;5034260;28;20026;-67
2021/07/20 06:30:23;;;;;;;9.50;4.72;;;;;;;;;;5016566;28;20392;-65
2021/07/20 06:32:51;;;;;;;12.23;5.20;;;;;;;;;;5034358;28;20026;-66
2021/07/20 06:35:18;;;;;;;7.20;5.38;;;;;;;;;;5033106;28;20029;-67
2021/07/20 06:37:47;;;;;;;6.25;4.60;;;;;;;;;;5014302;28;20022;-67
2021/07/20 06:40:14;;;;;;;9.23;4.85;;;;;;;;;;5014449;28;20029;-67
2021/07/20 06:42:41;;;;;;;6.10;4.78;;;;;;;;;;5014149;28;20396;-68
2021/07/20 06:45:08;;;;;;;7.93;5.10;;;;;;;;;;5014330;28;20468;-67
2021/07/20 06:47:39;;;;;;;7.93;4.43;;;;;;;;;;5014201;28;20118;-68
2021/07/20 06:50:06;;;;;;;11.93;5.18;;;;;;;;;;5014244;28;20080;-67
2021/07/20 06:52:32;;;;;;;8.00;4.65;;;;;;;;;;5014436;28;20014;-68
2021/07/20 06:55:00;;;;;;;7.35;5.68;;;;;;;;;;5014070;28;20022;-66
2021/07/20 06:57:26;;;;;;;5.68;4.70;;;;;;;;;;5014162;28;20022;-66
2021/07/20 06:59:54;;;;;;;7.95;5.07;;;;;;;;;;5023871;28;20435;-67
2021/07/20 07:02:21;;;;;;;6.47;4.60;;;;;;;;;;5023007;28;20057;-67
2021/07/20 07:05:00;;;;;;;6.18;4.43;;;;;;;;;;5021095;28;20036;-67
2021/07/20 07:07:28;;;;;;;7.57;4.93;;;;;;;;;;5025455;28;20037;-66
2021/07/20 07:09:54;;;;;;;6.88;4.93;;;;;;;;;;5027102;28;20028;-66
2021/07/20 07:12:20;;;;;;;7.88;4.53;;;;;;;;;;5030171;28;20763;-66
2021/07/20 07:14:47;;;;;;;7.10;4.55;;;;;;;;;;5037306;28;20049;-68
2021/07/20 07:17:13;;;;;;;6.72;4.60;;;;;;;;;;5040268;28;20485;-67
2021/07/20 07:19:39;;;;;;;8.43;5.25;;;;;;;;;;5019057;28;20400;-67
2021/07/20 07:22:05;;;;;;;7.20;4.80;;;;;;;;;;4999235;28;20113;-67
2021/07/20 07:24:32;;;;;;;7.85;4.07;;;;;;;;;;5000536;28;20077;-67
2021/07/20 07:27:00;;;;;;;5.90;4.40;;;;;;;;;;5021106;28;20034;-67
2021/07/20 07:29:26;;;;;;;5.97;4.55;;;;;;;;;;5022932;28;20119;-66
2021/07/20 07:31:52;;;;;;;7.68;4.80;;;;;;;;;;5017141;28;20029;-68
2021/07/20 07:34:19;;;;;;;6.28;4.05;;;;;;;;;;5026500;28;20029;-67
2021/07/20 07:36:46;;;;;;;6.38;4.05;;;;;;;;;;5024774;28;20049;-66
2021/07/20 07:39:14;;;;;;;6.78;4.55;;;;;;;;;;5024999;28;20060;-68
2021/07/20 07:41:41;;;;;;;7.53;4.20;;;;;;;;;;5022501;28;20144;-69
2021/07/20 07:44:09;;;;;;;5.47;4.07;;;;;;;;;;5011580;28;20037;-68
2021/07/20 07:46:37;;;;;;;7.63;3.58;;;;;;;;;;5017603;28;20033;-68
2021/07/20 07:49:04;;;;;;;6.53;3.50;;;;;;;;;;5027317;28;20029;-67
2021/07/20 07:51:30;;;;;;;4.47;3.22;;;;;;;;;;5021920;28;20117;-66
2021/07/20 07:53:59;;;;;;;5.57;4.10;;;;;;;;;;5011106;28;20038;-67
2021/07/20 07:56:26;;;;;;;5.20;4.40;;;;;;;;;;5020396;28;20512;-67
2021/07/20 07:58:53;;;;;;;5.85;4.28;;;;;;;;;;5009009;28;20125;-67
2021/07/20 08:01:19;;;;;;;4.80;3.67;;;;;;;;;;5026752;28;20033;-66
2021/07/20 08:03:46;;;;;;;5.28;4.20;;;;;;;;;;5025709;28;20025;-66
2021/07/20 08:06:20;;;;;;;5.88;3.90;;;;;;;;;;5012222;28;20021;-67
2021/07/20 08:08:47;;;;;;;5.15;3.92;;;;;;;;;;5023247;28;20036;-67
2021/07/20 08:11:13;;;;;;;5.65;4.07;;;;;;;;;;5021047;28;20140;-67
2021/07/20 08:13:40;;;;;;;5.05;3.70;;;;;;;;;;5027512;28;20036;-66
2021/07/20 08:16:07;;;;;;;4.72;3.92;;;;;;;;;;5024339;28;20023;-66
2021/07/20 08:18:34;;;;;;;5.07;4.20;;;;;;;;;;5019880;28;20114;-66
2021/07/20 08:21:05;;;;;;;5.72;3.70;;;;;;;;;;5026370;28;20483;-67
2021/07/20 08:23:32;;;;;;;5.03;3.92;;;;;;;;;;5021518;28;20037;-68
2021/07/20 08:26:00;;;;;;;6.38;4.55;;;;;;;;;;5020443;28;20029;-66
2021/07/20 08:28:45;;;;;;;8.85;3.88;;;;;;;;;;5013754;28;20034;-66
2021/07/20 08:31:12;;;;;;;5.90;3.75;;;;;;;;;;5010944;28;20522;-65
2021/07/20 08:33:39;;;;;;;7.03;4.70;;;;;;;;;;5018386;28;20464;-66
2021/07/20 08:36:08;;;;;;;5.63;3.13;;;;;;;;;;5016814;28;20026;-66
2021/07/20 08:38:35;;;;;;;4.55;3.85;;;;;;;;;;5019369;28;20041;-66
2021/07/20 08:41:01;;;;;;;6.00;3.90;;;;;;;;;;5015378;28;20037;-66
2021/07/20 08:43:46;;;;;;;4.82;4.00;;;;;;;;;;5016295;28;20395;-66
2021/07/20 08:46:31;;;;;;;5.25;4.70;;;;;;;;;;5008023;28;20034;-69
2021/07/20 08:48:57;;;;;;;;;;;;;;;;;;5014131;28;20853;-66
2021/07/20 08:51:56;;;;;;;5.38;3.55;;;;;;;;;;5015742;28;19909;-68
2021/07/20 08:54:27;;;;;;;15.13;5.43;;;;;;;;;;4989683;28;20053;-70
2021/07/20 08:56:53;;;;;;;9.07;4.60;;;;;;;;;;5015001;28;20362;-70
2021/07/20 08:59:22;;;;;;;5.63;4.00;;;;;;;;;;5022733;28;20034;-69
2021/07/20 09:02:02;;;;;;;11.30;4.38;;;;;;;;;;5004733;28;20659;-68
2021/07/20 09:04:36;;;;;;;8.85;4.05;;;;;;;;;;5026940;28;20026;-69
2021/07/20 09:07:16;;;;;;;4.23;3.67;;;;;;;;;;5020522;28;20486;-67
2021/07/20 09:09:46;;;;;;;4.30;3.45;;;;;;;;;;5009698;28;20061;-69
2021/07/20 09:12:18;;;;;;;5.32;3.92;;;;;;;;;;5013207;28;20047;-68
2021/07/20 09:14:47;;;;;;;4.70;4.03;;;;;;;;;;5009098;28;20026;-67
2021/07/20 09:17:16;;;;;;;4.90;3.70;;;;;;;;;;5025501;28;20092;-67
2021/07/20 09:19:52;;;;;;;4.78;3.60;;;;;;;;;;5024426;28;20442;-69
2021/07/20 09:22:21;;;;;;;8.07;4.13;;;;;;;;;;5015599;28;20033;-68
2021/07/20 09:24:56;;;;;;;7.43;3.20;;;;;;;;;;5022887;28;20483;-69
2021/07/20 09:27:41;;;;;;;5.18;3.63;;;;;;;;;;5025957;28;20034;-67
2021/07/20 09:30:11;;;;;;;4.38;3.33;;;;;;;;;;5021936;28;20510;-68
2021/07/20 09:32:52;;;;;;;4.65;3.60;;;;;;;;;;5009839;28;20048;-68
2021/07/20 09:35:26;;;;;;;4.35;3.92;;;;;;;;;;5013516;28;20040;-68
2021/07/20 09:38:01;;;;;;;5.68;3.85;;;;;;;;;;5018325;28;21106;-68
2021/07/20 09:40:27;;;;;;;;;;;;;;;;;;5021379;28;20029;-68
2021/07/20 09:42:53;;;;;;;6.05;3.70;;;;;;;;;;5026310;28;19917;-68
2021/07/20 09:45:21;;;;;;;3.92;3.30;;;;;;;;;;5028459;28;20029;-67
2021/07/20 09:47:53;;;;;;;4.15;3.72;;;;;;;;;;5026457;28;20040;-67
2021/07/20 09:50:20;;;;;;;4.25;3.50;;;;;;;;;;5014796;28;20061;-67
2021/07/20 09:53:05;;;;;;;4.25;3.25;;;;;;;;;;5020581;28;20108;-68
2021/07/20 09:55:31;;;;;;;;;;;;;;;;;;5016060;28;20069;-68
2021/07/20 09:58:09;;;;;;;8.07;3.13;;;;;;;;;;5022595;28;20338;-68
2021/07/20 10:00:43;;;;;;;4.45;3.50;;;;;;;;;;5027972;28;20025;-68
2021/07/20 10:03:19;;;;;;;4.40;3.35;;;;;;;;;;5029321;28;20556;-68
2021/07/20 10:05:52;;;;;;;5.70;4.03;;;;;;;;;;5022911;28;20033;-68
2021/07/20 10:08:21;;;;;;;8.70;3.33;;;;;;;;;;5030353;28;20033;-68
2021/07/20 10:11:00;;;;;;;6.10;3.30;;;;;;;;;;5027668;28;20048;-68
2021/07/20 10:13:38;;;;;;;5.45;3.78;;;;;;;;;;5009398;28;20025;-68
2021/07/20 10:16:24;;;;;;;5.20;3.05;;;;;;;;;;5022163;28;20042;-69
2021/07/20 10:19:11;;;;;;;6.13;3.17;;;;;;;;;;5032258;28;20055;-70
2021/07/20 10:21:39;;;;;;;5.47;4.82;;;;;;;;;;5025573;28;20029;-68
2021/07/20 10:24:09;;;;;;;4.38;3.60;;;;;;;;;;5014429;28;20029;-69
2021/07/20 10:26:42;;;;;;;6.43;3.70;;;;;;;;;;5030059;28;20037;-69
2021/07/20 10:29:25;;;;;;;5.18;3.17;;;;;;;;;;5022460;28;20698;-68
2021/07/20 10:32:06;;;;;;;3.90;3.20;;;;;;;;;;5021551;28;20522;-68
2021/07/20 10:34:32;;;;;;;7.75;3.33;;;;;;;;;;5027459;28;20057;-67
2021/07/20 10:37:03;;;;;;;5.38;3.63;;;;;;;;;;5023051;28;20033;-68
2021/07/20 10:39:34;;;;;;;5.93;3.28;;;;;;;;;;5024037;28;20411;-67
2021/07/20 10:42:17;;;;;;;3.92;3.42;;;;;;;;;;5025481;28;20045;-67
2021/07/20 10:45:12;;;;;;;4.60;3.33;;;;;;;;;;5022258;28;20033;-68
2021/07/20 10:47:56;;;;;;;4.28;3.22;;;;;;;;;;5009464;28;20037;-68
2021/07/20 10:50:31;;;;;;;3.83;3.42;;;;;;;;;;5020113;28;20092;-68
2021/07/20 10:53:16;;;;;;;4.43;3.60;;;;;;;;;;5023938;28;20029;-69
2021/07/20 10:55:42;;;;;;;;;;;;;;;;;;5022160;28;20087;-67
2021/07/20 10:58:27;;;;;;;6.45;3.65;;;;;;;;;;5022933;28;19927;-68
2021/07/20 11:00:59;;;;;;;4.55;3.35;;;;;;;;;;5023633;28;20563;-67
2021/07/20 11:03:44;;;;;;;4.97;3.30;;;;;;;;;;5012707;28;20034;-68
2021/07/20 11:06:12;;;;;;;10.05;3.67;;;;;;;;;;5019228;28;20030;-68
2021/07/20 11:08:43;;;;;;;6.10;3.35;;;;;;;;;;5025552;28;20044;-68
2021/07/20 11:11:09;;;;;;;8.70;3.88;;;;;;;;;;5024018;28;20109;-68
2021/07/20 11:13:37;;;;;;;7.25;3.63;;;;;;;;;;5022141;28;20029;-68
2021/07/20 11:16:07;;;;;;;5.13;3.30;;;;;;;;;;5009406;28;20044;-68
2021/07/20 11:18:38;;;;;;;5.47;3.35;;;;;;;;;;5020635;28;20021;-69
2021/07/20 11:21:06;;;;;;;5.55;3.13;;;;;;;;;;5017070;28;20112;-68
2021/07/20 11:23:35;;;;;;;7.45;3.88;;;;;;;;;;5020635;28;20109;-69
2021/07/20 11:26:02;;;;;;;5.35;3.45;;;;;;;;;;5016184;28;20022;-71
2021/07/20 11:28:29;;;;;;;8.93;3.55;;;;;;;;;;5019544;28;20041;-70
2021/07/20 11:30:56;;;;;;;4.85;3.67;;;;;;;;;;5004083;28;20028;-68
2021/07/20 11:33:30;;;;;;;4.63;3.45;;;;;;;;;;5022279;28;20037;-69
2021/07/20 11:35:56;;;;;;;;;;;;;;;;;;5022508;28;20040;-69
2021/07/20 11:38:24;;;;;;;6.50;3.47;;;;;;;;;;5022805;28;19916;-68
2021/07/20 11:40:50;;;;;;;5.32;3.03;;;;;;;;;;5019055;28;20528;-69
2021/07/20 11:43:26;;;;;;;6.07;3.33;;;;;;;;;;5024174;28;20033;-69
2021/07/20 11:45:58;;;;;;;5.43;3.45;;;;;;;;;;5013886;28;20105;-69
2021/07/20 11:48:25;;;;;;;4.95;3.55;;;;;;;;;;5002016;28;20096;-69
2021/07/20 11:50:57;;;;;;;6.15;3.53;;;;;;;;;;5021610;28;20403;-67
2021/07/20 11:53:36;;;;;;;4.43;3.55;;;;;;;;;;5020574;28;20133;-68
2021/07/20 11:56:14;;;;;;;5.55;3.42;;;;;;;;;;5020237;28;20069;-69
2021/07/20 11:58:40;;;;;;;4.38;2.97;;;;;;;;;;5026443;28;20021;-70
2021/07/20 12:01:15;;;;;;;4.63;3.00;;;;;;;;;;5027325;28;20034;-69
2021/07/20 12:03:54;;;;;;;5.22;3.40;;;;;;;;;;5028458;28;20036;-68
2021/07/20 12:06:26;;;;;;;5.75;3.17;;;;;;;;;;5027791;28;20061;-70
2021/07/20 12:08:52;;;;;;;4.53;2.80;;;;;;;;;;5026443;28;20547;-68
2021/07/20 12:11:32;;;;;;;4.70;3.83;;;;;;;;;;5027800;28;20029;-69
2021/07/20 12:13:59;;;;;;;5.45;3.72;;;;;;;;;;5028041;28;20029;-70
2021/07/20 12:16:25;;;;;;;5.05;3.85;;;;;;;;;;5028372;28;20036;-69
2021/07/20 12:18:55;;;;;;;5.68;3.33;;;;;;;;;;5028602;28;20788;-69
2021/07/20 12:21:23;;;;;;;6.78;3.30;;;;;;;;;;5029260;28;20030;-68
2021/07/20 12:23:54;;;;;;;4.88;3.17;;;;;;;;;;5028365;28;20070;-69
2021/07/20 12:26:23;;;;;;;4.15;3.45;;;;;;;;;;5028840;28;20500;-70
2021/07/20 12:28:50;;;;;;;4.20;3.30;;;;;;;;;;5029245;28;20522;-69
2021/07/20 12:31:16;;;;;;;4.95;3.65;;;;;;;;;;5029090;28;20034;-69
2021/07/20 12:33:46;;;;;;;7.25;3.50;;;;;;;;;;5028885;28;20029;-69
2021/07/20 12:36:13;;;;;;;6.93;3.60;;;;;;;;;;5028224;28;20744;-70
2021/07/20 12:38:40;;;;;;;4.82;3.55;;;;;;;;;;5028994;28;20029;-68
2021/07/20 12:41:16;;;;;;;6.00;4.05;;;;;;;;;;5028494;28;20038;-69
2021/07/20 12:43:43;;;;;;;6.07;3.70;;;;;;;;;;5029153;28;20184;-69
2021/07/20 12:46:13;;;;;;;4.18;3.15;;;;;;;;;;5028983;28;20218;-69
2021/07/20 12:48:50;;;;;;;4.63;3.72;;;;;;;;;;5023914;28;20041;-70
2021/07/20 12:51:17;;;;;;;5.38;3.88;;;;;;;;;;5009106;28;20503;-69
2021/07/20 12:53:44;;;;;;;6.72;4.22;;;;;;;;;;5009031;28;20044;-69
2021/07/20 12:56:11;;;;;;;7.13;3.47;;;;;;;;;;5009111;28;20115;-69
2021/07/20 12:58:37;;;;;;;5.28;3.50;;;;;;;;;;5010614;28;20033;-68
2021/07/20 13:01:04;;;;;;;8.60;3.60;;;;;;;;;;5017302;28;20057;-68
2021/07/20 13:03:30;;;;;;;5.10;3.28;;;;;;;;;;5026505;28;20038;-69
2021/07/20 13:05:56;;;;;;;4.22;3.28;;;;;;;;;;5022479;28;20029;-68
2021/07/20 13:08:22;;;;;;;6.10;3.33;;;;;;;;;;5030831;28;20588;-68
2021/07/20 13:10:49;;;;;;;5.10;2.92;;;;;;;;;;5025447;28;20025;-68
2021/07/20 13:13:15;;;;;;;3.88;2.88;;;;;;;;;;5010005;28;20083;-67
2021/07/20 13:15:47;;;;;;;2.88;2.47;;;;;;;;;;5015349;28;20038;-67
2021/07/20 13:18:13;;;;;;;4.05;3.15;;;;;;;;;;5022709;28;20034;-68
2021/07/20 13:20:39;;;;;;;4.13;2.92;;;;;;;;;;5029724;28;20045;-67
2021/07/20 13:23:05;;;;;;;4.45;3.20;;;;;;;;;;5015827;28;20037;-67
2021/07/20 13:25:31;;;;;;;4.32;3.20;;;;;;;;;;5026948;28;20021;-68
2021/07/20 13:27:57;;;;;;;4.32;3.05;;;;;;;;;;5036344;28;20064;-67
2021/07/20 13:30:32;;;;;;;6.80;2.95;;;;;;;;;;5023242;28;20030;-67
2021/07/20 13:32:58;;;;;;;4.53;2.72;;;;;;;;;;5030302;28;20166;-67
2021/07/20 13:35:26;;;;;;;5.00;3.08;;;;;;;;;;5029021;28;20392;-67
2021/07/20 13:37:53;;;;;;;3.83;3.08;;;;;;;;;;5035094;28;20093;-68
2021/07/20 13:40:20;;;;;;;5.43;2.80;;;;;;;;;;5025775;28;20038;-68
2021/07/20 13:42:50;;;;;;;4.20;2.70;;;;;;;;;;5032234;28;20057;-67
2021/07/20 13:45:16;;;;;;;7.68;3.70;;;;;;;;;;5030230;28;20064;-67
2021/07/20 13:47:48;;;;;;;5.63;2.80;;;;;;;;;;5026288;28;20065;-67
2021/07/20 13:50:17;;;;;;;5.40;3.75;;;;;;;;;;5015703;28;20434;-69
2021/07/20 13:52:43;;;;;;;6.50;3.10;;;;;;;;;;5014282;28;20508;-68
2021/07/20 13:55:11;;;;;;;3.85;2.50;;;;;;;;;;5027922;28;20033;-68
2021/07/20 13:57:38;;;;;;;6.35;3.05;;;;;;;;;;5031036;28;20034;-68
2021/07/20 14:00:08;;;;;;;6.30;2.90;;;;;;;;;;5022045;28;20053;-67
2021/07/20 14:02:34;;;;;;;4.00;2.78;;;;;;;;;;5024306;28;20021;-67
2021/07/20 14:05:01;;;;;;;3.60;2.70;;;;;;;;;;5029796;28;20040;-68
2021/07/20 14:07:29;;;;;;;3.22;2.88;;;;;;;;;;5031902;28;20033;-67
2021/07/20 14:09:55;;;;;;;6.07;2.83;;;;;;;;;;5024354;28;20025;-68
2021/07/20 14:12:22;;;;;;;6.25;3.10;;;;;;;;;;5017818;28;20057;-69
2021/07/20 14:14:53;;;;;;;4.28;3.00;;;;;;;;;;5022470;28;20041;-70
2021/07/20 14:17:23;;;;;;;5.18;2.90;;;;;;;;;;5026982;28;20042;-69
2021/07/20 14:19:50;;;;;;;5.13;2.80;;;;;;;;;;5022868;28;20076;-69
2021/07/20 14:22:19;;;;;;;6.30;3.25;;;;;;;;;;5020816;28;20036;-69
2021/07/20 14:24:47;;;;;;;5.15;2.80;;;;;;;;;;5024522;28;20488;-69
2021/07/20 14:27:14;;;;;;;6.47;3.33;;;;;;;;;;5019283;28;20037;-69
2021/07/20 14:29:42;;;;;;;5.55;3.08;;;;;;;;;;5018639;28;20025;-69
2021/07/20 14:32:11;;;;;;;4.18;2.78;;;;;;;;;;5002936;28;20057;-70
2021/07/20 14:34:57;;;;;;;3.97;3.10;;;;;;;;;;5024962;28;20026;-70
2021/07/20 14:37:36;;;;;;;3.45;2.92;;;;;;;;;;5022268;28;20386;-69
2021/07/20 14:40:04;;;;;;;4.00;2.67;;;;;;;;;;5010361;28;20026;-69
2021/07/20 14:42:31;;;;;;;5.28;2.60;;;;;;;;;;5011969;28;20045;-69
2021/07/20 14:45:08;;;;;;;5.25;2.70;;;;;;;;;;5017607;28;20458;-69
2021/07/20 14:47:36;;;;;;;4.25;2.80;;;;;;;;;;5000905;28;20033;-69
2021/07/20 14:50:05;;;;;;;4.07;2.45;;;;;;;;;;5024681;28;20029;-69
2021/07/20 14:52:44;;;;;;;4.45;2.80;;;;;;;;;;5026587;28;20035;-70
2021/07/20 14:55:12;;;;;;;3.97;2.90;;;;;;;;;;4998584;28;20044;-70
2021/07/20 14:57:43;;;;;;;7.45;2.88;;;;;;;;;;5018784;28;20033;-70
2021/07/20 15:00:09;;;;;;;5.22;3.05;;;;;;;;;;5023499;28;20056;-70